RJAA/NRT METAR and TAF weather

Enter ICAO airport designator
Station Type Date Time Source
RJAA METAR 2021/01/22 06:30 UTC NOAA

RJAA 220630Z VRB02KT 9000 FEW030 SCT090 15/M00 Q1015 NOSIG


Station Type Date Time Source
RJAA Decoded METAR 2021/01/22 06:30 UTC NOAA

New Tokyo Inter-National Airport, Japan (RJAA) 35-46N 140-23E 44M
Jan 22, 2021 - 01:30 AM EST / 2021.01.22 0630 UTC
Wind: Variable at 2 MPH (2 KT):0
Visibility: 5 mile(s):0
Sky conditions: partly cloudy
Temperature: 59 F (15 C)
Dew Point: 32 F (0 C)
Relative Humidity: 35%
Pressure (altimeter): 29.97 in. Hg (1015 hPa)
ob: RJAA 220630Z VRB02KT 9000 FEW030 SCT090 15/M00 Q1015 NOSIG
cycle: 6

Station Type Date Time Source
RJAA TAF 2021/01/22 06:30 UTC NOAA

TAF TAF RJAA 220505Z 2206/2312 02006KT 9999 FEW030 SCT045
BECMG 2221/2300 03016KT
TEMPO 2306/2312 4000 -RA BR FEW005 BKN008

Example: see airport list